createdAt,value
2023-04-30T00:00:51.833Z,27.00
2023-04-30T00:03:37.412Z,22.40
2023-04-30T00:06:09.453Z,27.00
2023-04-30T00:08:41.293Z,29.20
2023-04-30T00:11:13.068Z,28.30
2023-04-30T00:13:44.859Z,27.80
2023-04-30T00:16:16.686Z,24.90
2023-04-30T00:18:48.468Z,18.70
2023-04-30T00:21:20.301Z,18.10
2023-04-30T00:23:52.443Z,26.30
2023-04-30T00:26:24.284Z,25.30
2023-04-30T00:28:56.488Z,21.40
2023-04-30T00:31:28.726Z,25.10
2023-04-30T00:34:01.233Z,25.90
2023-04-30T00:36:33.332Z,18.00
2023-04-30T00:39:05.132Z,25.40
2023-04-30T00:41:37.950Z,20.90
2023-04-30T00:46:39.941Z,23.20
2023-04-30T00:49:11.820Z,17.70
2023-04-30T00:51:45.003Z,25.60
2023-04-30T00:54:17.661Z,21.80
2023-04-30T00:56:49.612Z,25.80
2023-04-30T00:59:22.109Z,23.80
2023-04-30T01:01:54.655Z,21.30
2023-04-30T01:04:27.184Z,21.70
2023-04-30T01:07:02.127Z,27.60
2023-04-30T01:09:34.206Z,26.10
2023-04-30T01:12:14.582Z,22.60
2023-04-30T01:14:58.328Z,20.90
2023-04-30T01:17:36.634Z,21.60
2023-04-30T01:20:12.594Z,25.10
2023-04-30T01:22:56.002Z,22.20
2023-04-30T01:25:46.140Z,20.00
2023-04-30T01:28:20.167Z,22.20
2023-04-30T01:30:52.985Z,24.80
2023-04-30T01:33:25.245Z,22.00
2023-04-30T01:36:21.231Z,16.50
2023-04-30T01:39:24.003Z,20.80
2023-04-30T01:42:05.017Z,28.30
2023-04-30T01:44:50.217Z,19.90
2023-04-30T01:47:32.042Z,20.20
2023-04-30T01:50:14.794Z,21.30
2023-04-30T01:52:51.773Z,23.00
2023-04-30T01:55:29.453Z,24.50
2023-04-30T01:58:03.950Z,25.90
2023-04-30T02:00:36.250Z,18.70
2023-04-30T02:03:08.286Z,22.50
2023-04-30T02:05:40.389Z,21.90
2023-04-30T02:08:12.399Z,23.20
2023-04-30T02:10:44.525Z,17.30
2023-04-30T02:13:16.532Z,19.40
2023-04-30T02:15:48.578Z,17.90
2023-04-30T02:18:20.440Z,20.80
2023-04-30T02:20:52.180Z,18.50
2023-04-30T02:23:24.185Z,23.20
2023-04-30T02:25:55.961Z,22.90
2023-04-30T02:28:27.814Z,18.30
2023-04-30T02:30:59.794Z,19.10
2023-04-30T02:33:31.667Z,20.30
2023-04-30T02:36:03.863Z,10.80
2023-04-30T02:38:35.620Z,23.10
2023-04-30T02:41:07.439Z,19.40
2023-04-30T02:43:39.158Z,18.60
2023-04-30T02:46:10.916Z,21.50
2023-04-30T02:48:42.652Z,16.00
2023-04-30T02:51:14.491Z,19.10
2023-04-30T02:53:46.157Z,21.10
2023-04-30T02:56:18.064Z,18.90
2023-04-30T02:58:49.821Z,22.20
2023-04-30T03:01:21.662Z,17.90
2023-04-30T03:03:53.968Z,17.40
2023-04-30T03:06:25.887Z,19.90
2023-04-30T03:08:57.628Z,22.10
2023-04-30T03:11:29.485Z,19.60
2023-04-30T03:16:32.364Z,14.80
2023-04-30T03:19:04.357Z,20.70
2023-04-30T03:21:36.103Z,16.30
2023-04-30T03:24:08.595Z,19.60
2023-04-30T03:26:41.797Z,19.10
2023-04-30T03:29:13.859Z,23.00
2023-04-30T03:31:45.526Z,22.70
2023-04-30T03:34:17.444Z,24.80
2023-04-30T03:36:49.155Z,23.40
2023-04-30T03:39:21.047Z,15.70
2023-04-30T03:41:52.847Z,15.90
2023-04-30T03:44:24.636Z,20.50
2023-04-30T03:46:56.417Z,20.90
2023-04-30T03:49:28.161Z,19.90
2023-04-30T03:52:00.142Z,17.00
2023-04-30T03:54:33.833Z,16.60
2023-04-30T03:57:07.671Z,18.90
2023-04-30T03:59:39.464Z,22.70
2023-04-30T04:02:11.864Z,20.90
2023-04-30T04:04:44.187Z,21.90
2023-04-30T04:07:16.146Z,15.30
2023-04-30T04:09:48.190Z,20.20
2023-04-30T04:12:20.198Z,19.10
2023-04-30T04:14:52.099Z,25.40
2023-04-30T04:17:23.892Z,19.70
2023-04-30T04:19:56.028Z,21.00
2023-04-30T04:22:28.165Z,21.50
2023-04-30T04:25:00.097Z,11.20
2023-04-30T04:27:32.045Z,19.60
2023-04-30T04:30:04.805Z,12.00
2023-04-30T04:32:42.178Z,18.30
2023-04-30T04:35:14.367Z,17.70
2023-04-30T04:37:46.420Z,16.70
2023-04-30T04:40:18.584Z,18.00
2023-04-30T04:42:53.017Z,19.50
2023-04-30T04:45:24.786Z,15.80
2023-04-30T04:47:56.619Z,16.80
2023-04-30T04:50:28.633Z,14.60
2023-04-30T04:53:00.443Z,15.80
2023-04-30T04:55:32.500Z,12.90
2023-04-30T04:58:04.259Z,22.20
2023-04-30T05:00:36.004Z,20.10
2023-04-30T05:03:09.402Z,21.40
2023-04-30T05:05:41.466Z,15.10
2023-04-30T05:08:13.223Z,13.90
2023-04-30T05:10:44.962Z,18.20
2023-04-30T05:13:16.945Z,16.60
2023-04-30T05:15:49.080Z,20.00
2023-04-30T05:18:20.980Z,14.10
2023-04-30T05:20:52.786Z,20.70
2023-04-30T05:23:24.548Z,21.30
2023-04-30T05:25:57.107Z,15.70
2023-04-30T05:28:28.832Z,15.40
2023-04-30T05:31:00.724Z,12.40
2023-04-30T05:33:32.489Z,13.20
2023-04-30T05:36:04.611Z,11.00
2023-04-30T05:38:36.329Z,19.20
2023-04-30T05:41:08.307Z,10.70
2023-04-30T05:43:40.050Z,10.00
2023-04-30T05:46:11.845Z,15.90
2023-04-30T05:48:43.609Z,12.80
2023-04-30T05:51:15.929Z,8.60
2023-04-30T05:53:48.097Z,14.20
2023-04-30T05:56:19.885Z,17.20
2023-04-30T05:58:52.550Z,13.30
2023-04-30T06:03:55.410Z,13.10
2023-04-30T06:06:27.950Z,14.10
2023-04-30T06:08:59.864Z,12.10
2023-04-30T06:11:32.172Z,9.90
2023-04-30T06:14:05.067Z,13.10
2023-04-30T06:16:36.950Z,11.60
2023-04-30T06:19:09.130Z,12.00
2023-04-30T06:21:43.536Z,10.00
2023-04-30T06:24:15.529Z,13.20
2023-04-30T06:26:47.313Z,9.80
2023-04-30T06:29:19.014Z,13.80
2023-04-30T06:31:50.971Z,11.80
2023-04-30T06:34:22.927Z,6.40
2023-04-30T06:36:54.693Z,8.20
2023-04-30T06:39:26.475Z,9.80
2023-04-30T06:41:58.268Z,12.20
2023-04-30T06:44:33.112Z,13.30
2023-04-30T06:47:04.835Z,9.70
2023-04-30T06:49:36.553Z,8.40
2023-04-30T06:52:08.425Z,10.50
2023-04-30T06:54:40.591Z,11.30
2023-04-30T06:57:12.581Z,10.50
2023-04-30T06:59:44.288Z,5.20
2023-04-30T07:02:16.255Z,9.20
2023-04-30T07:04:49.457Z,9.30
2023-04-30T07:07:21.778Z,11.90
2023-04-30T07:09:53.789Z,12.20
2023-04-30T07:12:26.095Z,10.50
2023-04-30T07:14:57.915Z,9.70
2023-04-30T07:17:29.883Z,10.00
2023-04-30T07:20:01.707Z,7.40
2023-04-30T07:22:33.606Z,7.50
2023-04-30T07:25:06.885Z,7.20
2023-04-30T07:27:38.819Z,13.40
2023-04-30T07:30:11.862Z,4.40
2023-04-30T07:32:43.840Z,13.20
2023-04-30T07:35:15.949Z,11.40
2023-04-30T07:37:47.943Z,11.10
2023-04-30T07:40:29.038Z,16.40
2023-04-30T07:43:07.060Z,8.90
2023-04-30T07:45:39.017Z,10.50
2023-04-30T07:48:10.957Z,11.20
2023-04-30T07:50:42.792Z,9.20
2023-04-30T07:53:14.530Z,10.90
2023-04-30T07:55:46.628Z,8.20
2023-04-30T07:58:18.513Z,9.90
2023-04-30T08:00:50.345Z,8.60
2023-04-30T08:03:22.334Z,9.50
2023-04-30T08:05:54.616Z,6.30
2023-04-30T08:08:26.438Z,10.70
2023-04-30T08:10:58.203Z,6.30
2023-04-30T08:13:30.844Z,9.20
2023-04-30T08:18:33.288Z,8.20
2023-04-30T08:21:05.749Z,9.50
2023-04-30T08:23:37.667Z,7.40
2023-04-30T08:26:09.803Z,8.40
2023-04-30T08:28:41.818Z,9.30
2023-04-30T08:31:13.721Z,9.30
2023-04-30T08:33:45.578Z,8.10
2023-04-30T08:36:17.389Z,13.10
2023-04-30T08:38:49.471Z,10.20
2023-04-30T08:41:26.697Z,9.00
2023-04-30T08:44:02.275Z,12.20
2023-04-30T08:46:37.628Z,7.80
2023-04-30T08:49:09.996Z,13.70
2023-04-30T08:51:42.791Z,6.60
2023-04-30T08:56:47.820Z,8.20
2023-04-30T08:59:19.796Z,8.50
2023-04-30T09:01:53.813Z,6.00
2023-04-30T09:04:26.217Z,11.10
2023-04-30T09:06:59.688Z,7.70
2023-04-30T09:09:38.642Z,10.30
2023-04-30T09:12:20.109Z,5.60
2023-04-30T09:15:03.509Z,2.30
2023-04-30T09:20:14.301Z,4.40
2023-04-30T09:22:46.125Z,5.90
2023-04-30T09:25:17.929Z,3.00
2023-04-30T09:27:49.781Z,8.20
2023-04-30T09:30:34.615Z,9.50
2023-04-30T09:33:08.680Z,6.90
2023-04-30T09:35:43.323Z,6.30
2023-04-30T09:38:29.566Z,6.20
2023-04-30T09:41:02.909Z,6.10
2023-04-30T09:43:34.785Z,5.50
2023-04-30T09:46:06.611Z,3.70
2023-04-30T09:48:42.413Z,5.90
2023-04-30T09:51:14.300Z,6.70
2023-04-30T09:53:46.803Z,4.80
2023-04-30T09:56:23.847Z,3.80
2023-04-30T09:58:58.513Z,10.10
2023-04-30T10:01:30.837Z,3.90
2023-04-30T10:04:03.458Z,3.50
2023-04-30T10:06:35.898Z,5.40
2023-04-30T10:09:11.840Z,10.80
2023-04-30T10:11:44.518Z,8.10
2023-04-30T10:16:55.907Z,8.50
2023-04-30T10:19:32.089Z,6.20
2023-04-30T10:22:05.222Z,6.60
2023-04-30T10:24:37.752Z,6.90
2023-04-30T10:27:09.850Z,4.90
2023-04-30T10:29:41.603Z,4.10
2023-04-30T10:32:15.025Z,5.10
2023-04-30T10:34:56.509Z,6.80
2023-04-30T10:37:33.673Z,4.70
2023-04-30T10:40:09.122Z,6.90
2023-04-30T10:42:49.091Z,5.10
2023-04-30T10:45:35.299Z,6.60
2023-04-30T10:48:08.439Z,7.50
2023-04-30T10:50:46.281Z,8.10
2023-04-30T10:53:22.847Z,5.20
2023-04-30T10:55:58.953Z,9.30
2023-04-30T10:58:34.364Z,4.60
2023-04-30T11:01:10.864Z,5.20
2023-04-30T11:03:44.268Z,6.60
2023-04-30T11:06:20.337Z,6.00
2023-04-30T11:08:52.272Z,7.50
2023-04-30T11:11:24.150Z,9.10
2023-04-30T11:14:02.711Z,7.70
2023-04-30T11:16:36.785Z,10.60
2023-04-30T11:19:14.953Z,4.30
2023-04-30T11:22:21.029Z,6.60
2023-04-30T11:25:05.395Z,5.70
2023-04-30T11:27:38.281Z,6.20
2023-04-30T11:32:48.991Z,6.20
2023-04-30T11:35:21.753Z,4.60
2023-04-30T11:40:28.455Z,5.10
2023-04-30T11:43:00.301Z,6.10
2023-04-30T11:45:32.364Z,4.70
2023-04-30T11:48:04.526Z,5.80
2023-04-30T11:50:43.729Z,8.10
2023-04-30T11:53:15.588Z,6.40
2023-04-30T11:55:47.386Z,4.40
2023-04-30T11:58:20.754Z,8.90
2023-04-30T12:00:53.516Z,7.10
2023-04-30T12:03:25.827Z,6.80
2023-04-30T12:05:58.221Z,7.20
2023-04-30T12:08:30.161Z,6.20
2023-04-30T12:11:02.145Z,6.70
2023-04-30T12:13:35.261Z,12.80
2023-04-30T12:16:07.873Z,6.20
2023-04-30T12:18:39.624Z,10.70
2023-04-30T12:21:11.741Z,6.90
2023-04-30T12:23:45.141Z,3.70
2023-04-30T12:26:17.821Z,8.70
2023-04-30T12:28:52.694Z,6.40
2023-04-30T12:31:24.561Z,5.80
2023-04-30T12:33:59.693Z,7.40
2023-04-30T12:36:36.873Z,7.50
2023-04-30T12:39:13.269Z,6.20
2023-04-30T12:41:46.468Z,5.10
2023-04-30T12:44:20.733Z,6.80
2023-04-30T12:46:56.327Z,5.20
2023-04-30T12:49:30.470Z,6.00
2023-04-30T12:52:04.265Z,5.90
2023-04-30T12:54:37.431Z,5.10
2023-04-30T12:57:10.821Z,5.70
2023-04-30T12:59:59.787Z,8.70
2023-04-30T13:02:32.307Z,8.90
2023-04-30T13:07:40.712Z,5.00
2023-04-30T13:10:13.834Z,5.70
2023-04-30T13:12:45.535Z,8.10
2023-04-30T13:15:17.856Z,5.50
2023-04-30T13:17:50.072Z,6.10
2023-04-30T13:20:22.013Z,8.60
2023-04-30T13:22:53.925Z,8.40
2023-04-30T13:25:25.914Z,7.70
2023-04-30T13:30:29.755Z,8.00
2023-04-30T13:33:01.683Z,7.70
2023-04-30T13:35:33.473Z,6.80
2023-04-30T13:38:05.279Z,5.80
2023-04-30T13:40:37.142Z,6.30
2023-04-30T13:43:08.908Z,6.40
2023-04-30T13:45:41.014Z,7.80
2023-04-30T13:48:12.817Z,7.30
2023-04-30T13:50:44.619Z,6.90
2023-04-30T13:53:16.348Z,7.60
2023-04-30T13:55:48.043Z,5.20
2023-04-30T13:58:19.796Z,4.40
2023-04-30T14:00:51.554Z,5.90
2023-04-30T14:03:23.422Z,5.80
2023-04-30T14:05:55.548Z,5.10
2023-04-30T14:08:27.331Z,5.00
2023-04-30T14:10:59.169Z,8.10
2023-04-30T14:13:31.138Z,9.80
2023-04-30T14:16:03.057Z,10.30
2023-04-30T14:18:35.055Z,7.30
2023-04-30T14:21:07.517Z,9.30
2023-04-30T14:26:10.617Z,6.80
2023-04-30T14:28:42.440Z,6.10
2023-04-30T14:31:14.313Z,5.70
2023-04-30T14:33:46.539Z,8.30
2023-04-30T14:36:18.625Z,6.00
2023-04-30T14:38:50.410Z,7.80
2023-04-30T14:41:22.269Z,6.30
2023-04-30T14:43:54.135Z,9.40
2023-04-30T14:46:26.467Z,8.50
2023-04-30T14:48:58.485Z,5.10
2023-04-30T14:51:30.743Z,7.20
2023-04-30T14:54:03.428Z,7.20
2023-04-30T14:59:06.077Z,7.80
2023-04-30T15:01:37.891Z,8.80
2023-04-30T15:04:10.138Z,7.20
2023-04-30T15:06:42.176Z,8.10
2023-04-30T15:09:14.172Z,6.90
2023-04-30T15:11:46.199Z,4.90
2023-04-30T15:14:17.983Z,8.20
2023-04-30T15:16:49.872Z,6.00
2023-04-30T15:19:21.765Z,7.50
2023-04-30T15:21:53.552Z,8.50
2023-04-30T15:24:26.017Z,4.60
2023-04-30T15:26:58.609Z,6.20
2023-04-30T15:32:01.207Z,7.10
2023-04-30T15:34:33.030Z,9.60
2023-04-30T15:37:05.840Z,7.40
2023-04-30T15:39:38.054Z,4.00
2023-04-30T15:42:09.805Z,5.40
2023-04-30T15:44:41.751Z,7.50
2023-04-30T15:47:13.893Z,12.30
2023-04-30T15:49:45.676Z,6.20
2023-04-30T15:52:17.417Z,6.90
2023-04-30T15:54:49.895Z,7.30
2023-04-30T15:57:21.950Z,9.60
2023-04-30T15:59:54.934Z,5.70
2023-04-30T16:02:27.194Z,8.30
2023-04-30T16:04:59.177Z,7.40
2023-04-30T16:07:31.876Z,5.10
2023-04-30T16:12:35.107Z,5.60
2023-04-30T16:15:08.740Z,5.30
2023-04-30T16:17:40.966Z,6.00
2023-04-30T16:20:14.300Z,7.00
2023-04-30T16:22:46.060Z,9.80
2023-04-30T16:25:17.864Z,5.30
2023-04-30T16:27:50.205Z,5.90
2023-04-30T16:30:22.286Z,4.90
2023-04-30T16:32:54.293Z,4.80
2023-04-30T16:35:26.786Z,4.50
2023-04-30T16:37:59.218Z,5.60
2023-04-30T16:40:31.726Z,5.30
2023-04-30T16:45:34.204Z,7.30
2023-04-30T16:48:06.333Z,4.30
2023-04-30T16:50:38.321Z,4.80
2023-04-30T16:53:11.103Z,5.10
2023-04-30T16:55:44.421Z,6.20
2023-04-30T16:58:16.689Z,4.60
2023-04-30T17:00:49.814Z,7.90
2023-04-30T17:03:21.873Z,7.80
2023-04-30T17:05:54.463Z,6.00
2023-04-30T17:10:56.708Z,3.70
2023-04-30T17:13:30.765Z,5.00
2023-04-30T17:16:02.793Z,6.20
2023-04-30T17:18:34.687Z,4.90
2023-04-30T17:21:06.742Z,9.00
2023-04-30T17:23:38.585Z,4.40
2023-04-30T17:26:10.750Z,5.80
2023-04-30T17:28:42.530Z,5.60
2023-04-30T17:31:14.495Z,8.70
2023-04-30T17:33:46.462Z,12.00
2023-04-30T17:36:18.684Z,7.70
2023-04-30T17:38:50.537Z,5.30
2023-04-30T17:41:22.262Z,5.20
2023-04-30T17:43:54.600Z,7.20
2023-04-30T17:46:26.848Z,8.00
2023-04-30T17:49:01.517Z,9.10
2023-04-30T17:51:33.716Z,7.50
2023-04-30T17:54:05.560Z,9.30
2023-04-30T17:56:38.790Z,8.50
2023-04-30T17:59:10.538Z,4.40
2023-04-30T18:01:42.427Z,11.80
2023-04-30T18:04:20.634Z,8.00
2023-04-30T18:06:52.701Z,9.10
2023-04-30T18:09:24.595Z,7.60
2023-04-30T18:11:58.736Z,9.00
2023-04-30T18:14:32.599Z,8.70
2023-04-30T18:17:04.422Z,10.60
2023-04-30T18:19:38.636Z,12.70
2023-04-30T18:22:10.405Z,9.50
2023-04-30T18:24:42.602Z,8.70
2023-04-30T18:27:15.921Z,11.90
2023-04-30T18:29:48.860Z,9.70
2023-04-30T18:32:20.585Z,9.80
2023-04-30T18:34:52.363Z,12.90
2023-04-30T18:37:24.351Z,10.30
2023-04-30T18:39:56.584Z,8.30
2023-04-30T18:42:30.096Z,9.70
2023-04-30T18:45:02.122Z,10.30
2023-04-30T18:47:34.222Z,11.40
2023-04-30T18:50:10.315Z,12.50
2023-04-30T18:52:42.838Z,16.00
2023-04-30T18:55:15.037Z,15.10
2023-04-30T18:57:47.104Z,12.50
2023-04-30T19:00:19.158Z,11.30
2023-04-30T19:02:52.465Z,7.50
2023-04-30T19:05:24.348Z,16.90
2023-04-30T19:07:56.095Z,10.50
2023-04-30T19:10:28.595Z,10.60
2023-04-30T19:13:00.477Z,13.70
2023-04-30T19:15:32.209Z,11.40
2023-04-30T19:18:04.057Z,14.30
2023-04-30T19:20:36.009Z,17.30
2023-04-30T19:23:09.340Z,13.90
2023-04-30T19:25:41.178Z,12.50
2023-04-30T19:28:14.593Z,12.60
2023-04-30T19:30:46.687Z,16.60
2023-04-30T19:33:18.543Z,18.70
2023-04-30T19:35:53.273Z,21.10
2023-04-30T19:38:25.017Z,23.30
2023-04-30T19:40:57.081Z,25.60
2023-04-30T19:43:28.926Z,17.50
2023-04-30T19:46:02.104Z,13.30
2023-04-30T19:48:34.042Z,17.00
2023-04-30T19:51:07.074Z,15.80
2023-04-30T19:53:39.047Z,16.90
2023-04-30T19:56:10.726Z,18.00
2023-04-30T19:58:43.856Z,15.00
2023-04-30T20:01:16.149Z,16.50
2023-04-30T20:03:48.659Z,15.40
2023-04-30T20:06:21.082Z,16.00
2023-04-30T20:08:53.094Z,14.20
2023-04-30T20:11:25.625Z,14.30
2023-04-30T20:13:58.068Z,16.00
2023-04-30T20:16:29.871Z,16.90
2023-04-30T20:19:01.659Z,15.50
2023-04-30T20:21:34.914Z,16.00
2023-04-30T20:24:07.547Z,15.00
2023-04-30T20:26:39.374Z,14.90
2023-04-30T20:29:11.487Z,17.30
2023-04-30T20:31:43.388Z,22.40
2023-04-30T20:34:15.364Z,25.20
2023-04-30T20:36:47.829Z,26.70
2023-04-30T20:39:19.709Z,28.60
2023-04-30T20:41:52.214Z,16.40
2023-04-30T20:44:26.746Z,25.30
2023-04-30T20:46:58.582Z,23.50
2023-04-30T20:49:30.417Z,29.00
2023-04-30T20:52:02.267Z,16.20
2023-04-30T20:54:34.250Z,25.70
2023-04-30T20:57:06.471Z,23.00
2023-04-30T20:59:39.104Z,27.10
2023-04-30T21:02:10.870Z,20.90
2023-04-30T21:04:42.773Z,31.00
2023-04-30T21:07:14.556Z,20.30
2023-04-30T21:09:46.522Z,20.20
2023-04-30T21:12:18.514Z,20.70
2023-04-30T21:14:50.221Z,21.20
2023-04-30T21:17:22.181Z,19.50
2023-04-30T21:19:55.108Z,12.30
2023-04-30T21:22:27.599Z,19.40
2023-04-30T21:24:59.284Z,10.90
2023-04-30T21:27:30.956Z,18.60
2023-04-30T21:30:03.368Z,14.70
2023-04-30T21:32:35.147Z,22.90
2023-04-30T21:35:08.139Z,15.40
2023-04-30T21:37:40.744Z,14.80
2023-04-30T21:40:13.619Z,13.80
2023-04-30T21:42:45.364Z,12.60
2023-04-30T21:45:17.036Z,16.90
2023-04-30T21:47:50.975Z,17.30
2023-04-30T21:50:23.709Z,13.20
2023-04-30T21:52:55.453Z,20.00
2023-04-30T21:55:27.644Z,13.60
2023-04-30T21:57:59.550Z,14.70
2023-04-30T22:00:31.408Z,9.90
2023-04-30T22:03:03.842Z,23.40
2023-04-30T22:05:35.784Z,14.30
2023-04-30T22:08:08.264Z,14.70
2023-04-30T22:10:39.989Z,13.10
2023-04-30T22:13:12.329Z,13.10
2023-04-30T22:15:48.106Z,12.80
2023-04-30T22:18:20.701Z,20.20
2023-04-30T22:20:53.723Z,12.40
2023-04-30T22:23:25.862Z,18.40
2023-04-30T22:25:57.590Z,11.30
2023-04-30T22:28:29.397Z,18.50
2023-04-30T22:31:01.494Z,16.40
2023-04-30T22:33:37.031Z,15.10
2023-04-30T22:36:10.424Z,18.00
2023-04-30T22:38:42.128Z,17.90
2023-04-30T22:41:13.809Z,18.50
2023-04-30T22:43:48.654Z,15.20
2023-04-30T22:46:20.348Z,12.90
2023-04-30T22:48:55.359Z,18.20
2023-04-30T22:51:27.587Z,22.10
2023-04-30T22:53:59.344Z,23.10
2023-04-30T22:56:31.063Z,19.00
2023-04-30T22:59:03.178Z,18.10
2023-04-30T23:01:35.802Z,19.30
2023-04-30T23:04:09.540Z,16.20
2023-04-30T23:06:42.759Z,15.10
2023-04-30T23:09:15.485Z,14.80
2023-04-30T23:11:48.154Z,10.90
2023-04-30T23:14:20.093Z,15.30
2023-04-30T23:16:51.918Z,14.50
2023-04-30T23:19:24.106Z,12.80
2023-04-30T23:21:56.871Z,12.80
2023-04-30T23:24:28.808Z,12.30
2023-04-30T23:27:00.616Z,14.50
2023-04-30T23:29:33.268Z,8.00
2023-04-30T23:32:06.297Z,16.10
2023-04-30T23:34:38.037Z,15.80
2023-04-30T23:37:09.682Z,12.60
2023-04-30T23:39:41.563Z,12.40
2023-04-30T23:42:13.626Z,10.00
2023-04-30T23:44:45.462Z,14.70
2023-04-30T23:47:17.885Z,15.00
2023-04-30T23:49:49.552Z,11.80
2023-04-30T23:52:21.387Z,8.70
2023-04-30T23:54:53.153Z,10.90
2023-04-30T23:57:25.834Z,9.80
